sensor_id;sensor_type;location;lat;lon;timestamp;P1;durP1;ratioP1;P2;durP2;ratioP2
65187;SDS011;51775;51.148;6.950;2023-08-20T00:00:02;3.20;;;2.60;;
65187;SDS011;51775;51.148;6.950;2023-08-20T00:02:27;3.10;;;2.40;;
65187;SDS011;51775;51.148;6.950;2023-08-20T00:04:57;3.00;;;2.40;;
65187;SDS011;51775;51.148;6.950;2023-08-20T00:07:23;3.30;;;2.58;;
65187;SDS011;51775;51.148;6.950;2023-08-20T00:09:49;3.25;;;2.50;;
65187;SDS011;51775;51.148;6.950;2023-08-20T00:12:14;3.03;;;2.50;;
65187;SDS011;51775;51.148;6.950;2023-08-20T00:14:53;4.40;;;2.78;;
65187;SDS011;51775;51.148;6.950;2023-08-20T00:17:29;4.45;;;2.80;;
65187;SDS011;51775;51.148;6.950;2023-08-20T00:19:55;3.95;;;2.75;;
65187;SDS011;51775;51.148;6.950;2023-08-20T00:22:25;3.50;;;2.90;;
65187;SDS011;51775;51.148;6.950;2023-08-20T00:24:51;3.90;;;2.92;;
65187;SDS011;51775;51.148;6.950;2023-08-20T00:27:17;4.22;;;3.30;;
65187;SDS011;51775;51.148;6.950;2023-08-20T00:29:43;4.15;;;3.15;;
65187;SDS011;51775;51.148;6.950;2023-08-20T00:32:08;4.10;;;3.20;;
65187;SDS011;51775;51.148;6.950;2023-08-20T00:34:34;3.50;;;2.90;;
65187;SDS011;51775;51.148;6.950;2023-08-20T00:36:59;3.60;;;2.80;;
65187;SDS011;51775;51.148;6.950;2023-08-20T00:39:24;4.13;;;3.03;;
65187;SDS011;51775;51.148;6.950;2023-08-20T00:41:49;4.10;;;2.67;;
65187;SDS011;51775;51.148;6.950;2023-08-20T00:44:15;5.40;;;3.10;;
65187;SDS011;51775;51.148;6.950;2023-08-20T00:46:40;3.50;;;2.80;;
65187;SDS011;51775;51.148;6.950;2023-08-20T00:49:06;3.67;;;3.05;;
65187;SDS011;51775;51.148;6.950;2023-08-20T00:51:32;3.70;;;2.97;;
65187;SDS011;51775;51.148;6.950;2023-08-20T00:53:58;5.50;;;2.80;;
65187;SDS011;51775;51.148;6.950;2023-08-20T00:56:25;3.95;;;2.90;;
65187;SDS011;51775;51.148;6.950;2023-08-20T00:58:52;3.60;;;2.67;;
65187;SDS011;51775;51.148;6.950;2023-08-20T01:01:21;4.75;;;2.80;;
65187;SDS011;51775;51.148;6.950;2023-08-20T01:03:46;3.53;;;2.70;;
65187;SDS011;51775;51.148;6.950;2023-08-20T01:06:14;3.38;;;2.67;;
65187;SDS011;51775;51.148;6.950;2023-08-20T01:08:42;3.20;;;2.70;;
65187;SDS011;51775;51.148;6.950;2023-08-20T01:11:21;3.47;;;2.70;;
65187;SDS011;51775;51.148;6.950;2023-08-20T01:13:58;3.55;;;2.80;;
65187;SDS011;51775;51.148;6.950;2023-08-20T01:16:24;3.67;;;2.65;;
65187;SDS011;51775;51.148;6.950;2023-08-20T01:18:49;3.72;;;2.80;;
65187;SDS011;51775;51.148;6.950;2023-08-20T01:21:23;3.17;;;2.45;;
65187;SDS011;51775;51.148;6.950;2023-08-20T01:24:01;3.67;;;2.70;;
65187;SDS011;51775;51.148;6.950;2023-08-20T01:26:39;3.72;;;2.63;;
65187;SDS011;51775;51.148;6.950;2023-08-20T01:29:05;3.33;;;2.70;;
65187;SDS011;51775;51.148;6.950;2023-08-20T01:31:32;3.13;;;2.60;;
65187;SDS011;51775;51.148;6.950;2023-08-20T01:33:57;3.50;;;2.60;;
65187;SDS011;51775;51.148;6.950;2023-08-20T01:36:23;3.22;;;2.50;;
65187;SDS011;51775;51.148;6.950;2023-08-20T01:38:48;3.58;;;2.60;;
65187;SDS011;51775;51.148;6.950;2023-08-20T01:41:13;3.33;;;2.50;;
65187;SDS011;51775;51.148;6.950;2023-08-20T01:43:39;3.30;;;2.45;;
65187;SDS011;51775;51.148;6.950;2023-08-20T01:46:04;3.22;;;2.50;;
65187;SDS011;51775;51.148;6.950;2023-08-20T01:48:30;3.72;;;2.78;;
65187;SDS011;51775;51.148;6.950;2023-08-20T01:50:55;3.35;;;2.70;;
65187;SDS011;51775;51.148;6.950;2023-08-20T01:53:20;3.42;;;2.60;;
65187;SDS011;51775;51.148;6.950;2023-08-20T01:55:46;4.22;;;2.55;;
65187;SDS011;51775;51.148;6.950;2023-08-20T01:58:11;3.30;;;2.50;;
65187;SDS011;51775;51.148;6.950;2023-08-20T02:00:36;3.15;;;2.25;;
65187;SDS011;51775;51.148;6.950;2023-08-20T02:03:01;3.10;;;2.30;;
65187;SDS011;51775;51.148;6.950;2023-08-20T02:05:27;3.10;;;2.30;;
65187;SDS011;51775;51.148;6.950;2023-08-20T02:07:53;3.63;;;2.60;;
65187;SDS011;51775;51.148;6.950;2023-08-20T02:10:18;3.67;;;2.40;;
65187;SDS011;51775;51.148;6.950;2023-08-20T02:12:44;2.72;;;2.20;;
65187;SDS011;51775;51.148;6.950;2023-08-20T02:15:09;3.10;;;2.40;;
65187;SDS011;51775;51.148;6.950;2023-08-20T02:17:34;2.92;;;2.22;;
65187;SDS011;51775;51.148;6.950;2023-08-20T02:20:00;3.10;;;2.40;;
65187;SDS011;51775;51.148;6.950;2023-08-20T02:22:25;3.15;;;2.40;;
65187;SDS011;51775;51.148;6.950;2023-08-20T02:24:50;3.30;;;2.35;;
65187;SDS011;51775;51.148;6.950;2023-08-20T02:27:16;3.05;;;2.28;;
65187;SDS011;51775;51.148;6.950;2023-08-20T02:29:41;2.85;;;2.25;;
65187;SDS011;51775;51.148;6.950;2023-08-20T02:32:06;3.10;;;2.38;;
65187;SDS011;51775;51.148;6.950;2023-08-20T02:34:31;3.33;;;2.20;;
65187;SDS011;51775;51.148;6.950;2023-08-20T02:36:57;2.83;;;2.40;;
65187;SDS011;51775;51.148;6.950;2023-08-20T02:39:22;3.00;;;2.28;;
65187;SDS011;51775;51.148;6.950;2023-08-20T02:41:47;2.90;;;2.30;;
65187;SDS011;51775;51.148;6.950;2023-08-20T02:44:13;3.00;;;2.30;;
65187;SDS011;51775;51.148;6.950;2023-08-20T02:46:38;2.55;;;2.00;;
65187;SDS011;51775;51.148;6.950;2023-08-20T02:49:03;3.05;;;2.28;;
65187;SDS011;51775;51.148;6.950;2023-08-20T02:51:30;2.80;;;2.20;;
65187;SDS011;51775;51.148;6.950;2023-08-20T02:53:55;2.83;;;2.20;;
65187;SDS011;51775;51.148;6.950;2023-08-20T02:56:20;3.70;;;2.20;;
65187;SDS011;51775;51.148;6.950;2023-08-20T02:58:46;3.45;;;2.20;;
65187;SDS011;51775;51.148;6.950;2023-08-20T03:01:21;2.90;;;2.30;;
65187;SDS011;51775;51.148;6.950;2023-08-20T03:03:47;2.70;;;2.10;;
65187;SDS011;51775;51.148;6.950;2023-08-20T03:06:12;3.30;;;2.35;;
65187;SDS011;51775;51.148;6.950;2023-08-20T03:08:37;2.60;;;2.10;;
65187;SDS011;51775;51.148;6.950;2023-08-20T03:11:03;2.85;;;2.33;;
65187;SDS011;51775;51.148;6.950;2023-08-20T03:13:28;2.95;;;2.30;;
65187;SDS011;51775;51.148;6.950;2023-08-20T03:15:53;3.25;;;2.13;;
65187;SDS011;51775;51.148;6.950;2023-08-20T03:18:18;2.78;;;2.20;;
65187;SDS011;51775;51.148;6.950;2023-08-20T03:20:44;2.90;;;2.20;;
65187;SDS011;51775;51.148;6.950;2023-08-20T03:23:09;3.15;;;2.47;;
65187;SDS011;51775;51.148;6.950;2023-08-20T03:25:34;3.03;;;2.38;;
65187;SDS011;51775;51.148;6.950;2023-08-20T03:28:00;2.83;;;2.28;;
65187;SDS011;51775;51.148;6.950;2023-08-20T03:30:25;2.97;;;2.20;;
65187;SDS011;51775;51.148;6.950;2023-08-20T03:32:50;2.97;;;2.30;;
65187;SDS011;51775;51.148;6.950;2023-08-20T03:35:15;2.75;;;2.22;;
65187;SDS011;51775;51.148;6.950;2023-08-20T03:37:41;2.88;;;2.10;;
65187;SDS011;51775;51.148;6.950;2023-08-20T03:40:06;2.83;;;2.25;;
65187;SDS011;51775;51.148;6.950;2023-08-20T03:42:32;2.80;;;2.20;;
65187;SDS011;51775;51.148;6.950;2023-08-20T03:44:57;3.30;;;2.13;;
65187;SDS011;51775;51.148;6.950;2023-08-20T03:47:22;3.07;;;2.33;;
65187;SDS011;51775;51.148;6.950;2023-08-20T03:49:48;3.10;;;2.55;;
65187;SDS011;51775;51.148;6.950;2023-08-20T03:52:14;3.00;;;2.05;;
65187;SDS011;51775;51.148;6.950;2023-08-20T03:54:39;2.88;;;2.20;;
65187;SDS011;51775;51.148;6.950;2023-08-20T03:57:05;2.90;;;2.20;;
65187;SDS011;51775;51.148;6.950;2023-08-20T03:59:30;2.92;;;2.22;;
65187;SDS011;51775;51.148;6.950;2023-08-20T04:01:55;2.60;;;2.00;;
65187;SDS011;51775;51.148;6.950;2023-08-20T04:04:21;2.67;;;2.20;;
65187;SDS011;51775;51.148;6.950;2023-08-20T04:06:46;2.72;;;2.25;;
65187;SDS011;51775;51.148;6.950;2023-08-20T04:09:11;2.83;;;2.30;;
65187;SDS011;51775;51.148;6.950;2023-08-20T04:11:37;2.70;;;2.13;;
65187;SDS011;51775;51.148;6.950;2023-08-20T04:14:02;2.60;;;2.10;;
65187;SDS011;51775;51.148;6.950;2023-08-20T04:16:28;2.65;;;2.20;;
65187;SDS011;51775;51.148;6.950;2023-08-20T04:18:54;2.88;;;2.30;;
65187;SDS011;51775;51.148;6.950;2023-08-20T04:21:20;3.10;;;2.60;;
65187;SDS011;51775;51.148;6.950;2023-08-20T04:23:45;2.97;;;2.40;;
65187;SDS011;51775;51.148;6.950;2023-08-20T04:26:10;2.92;;;2.20;;
65187;SDS011;51775;51.148;6.950;2023-08-20T04:28:36;2.85;;;2.10;;
65187;SDS011;51775;51.148;6.950;2023-08-20T04:31:01;2.67;;;2.22;;
65187;SDS011;51775;51.148;6.950;2023-08-20T04:33:27;2.92;;;2.20;;
65187;SDS011;51775;51.148;6.950;2023-08-20T04:35:53;2.85;;;2.10;;
65187;SDS011;51775;51.148;6.950;2023-08-20T04:38:18;2.97;;;2.38;;
65187;SDS011;51775;51.148;6.950;2023-08-20T04:40:47;2.92;;;2.30;;
65187;SDS011;51775;51.148;6.950;2023-08-20T04:43:13;3.42;;;2.38;;
65187;SDS011;51775;51.148;6.950;2023-08-20T04:45:38;2.85;;;2.30;;
65187;SDS011;51775;51.148;6.950;2023-08-20T04:48:04;2.95;;;2.30;;
65187;SDS011;51775;51.148;6.950;2023-08-20T04:50:29;2.60;;;2.00;;
65187;SDS011;51775;51.148;6.950;2023-08-20T04:52:54;2.65;;;2.15;;
65187;SDS011;51775;51.148;6.950;2023-08-20T04:55:20;2.65;;;2.20;;
65187;SDS011;51775;51.148;6.950;2023-08-20T04:57:45;2.65;;;2.20;;
65187;SDS011;51775;51.148;6.950;2023-08-20T05:00:10;2.70;;;2.28;;
65187;SDS011;51775;51.148;6.950;2023-08-20T05:02:36;3.20;;;2.50;;
65187;SDS011;51775;51.148;6.950;2023-08-20T05:05:04;3.22;;;2.30;;
65187;SDS011;51775;51.148;6.950;2023-08-20T05:07:30;2.83;;;2.10;;
65187;SDS011;51775;51.148;6.950;2023-08-20T05:09:55;2.72;;;2.10;;
65187;SDS011;51775;51.148;6.950;2023-08-20T05:12:20;2.92;;;2.40;;
65187;SDS011;51775;51.148;6.950;2023-08-20T05:14:46;2.80;;;2.28;;
65187;SDS011;51775;51.148;6.950;2023-08-20T05:17:11;2.90;;;2.17;;
65187;SDS011;51775;51.148;6.950;2023-08-20T05:19:36;2.90;;;2.35;;
65187;SDS011;51775;51.148;6.950;2023-08-20T05:22:01;2.95;;;2.30;;
65187;SDS011;51775;51.148;6.950;2023-08-20T05:24:27;3.20;;;2.25;;
65187;SDS011;51775;51.148;6.950;2023-08-20T05:27:03;2.83;;;2.10;;
65187;SDS011;51775;51.148;6.950;2023-08-20T05:29:31;3.08;;;2.40;;
65187;SDS011;51775;51.148;6.950;2023-08-20T05:31:57;2.95;;;2.20;;
65187;SDS011;51775;51.148;6.950;2023-08-20T05:34:22;2.67;;;2.15;;
65187;SDS011;51775;51.148;6.950;2023-08-20T05:36:47;2.70;;;2.20;;
65187;SDS011;51775;51.148;6.950;2023-08-20T05:39:13;2.58;;;2.10;;
65187;SDS011;51775;51.148;6.950;2023-08-20T05:41:38;2.60;;;2.10;;
65187;SDS011;51775;51.148;6.950;2023-08-20T05:44:03;2.85;;;2.28;;
65187;SDS011;51775;51.148;6.950;2023-08-20T05:46:29;2.85;;;2.20;;
65187;SDS011;51775;51.148;6.950;2023-08-20T05:48:54;2.90;;;2.20;;
65187;SDS011;51775;51.148;6.950;2023-08-20T05:51:19;3.10;;;2.38;;
65187;SDS011;51775;51.148;6.950;2023-08-20T05:53:45;2.75;;;2.20;;
65187;SDS011;51775;51.148;6.950;2023-08-20T05:56:10;2.72;;;2.20;;
65187;SDS011;51775;51.148;6.950;2023-08-20T05:58:35;2.80;;;2.20;;
65187;SDS011;51775;51.148;6.950;2023-08-20T06:01:00;2.65;;;2.20;;
65187;SDS011;51775;51.148;6.950;2023-08-20T06:03:26;2.65;;;2.25;;
65187;SDS011;51775;51.148;6.950;2023-08-20T06:05:51;2.55;;;2.03;;
65187;SDS011;51775;51.148;6.950;2023-08-20T06:08:16;2.70;;;2.13;;
65187;SDS011;51775;51.148;6.950;2023-08-20T06:10:41;2.75;;;2.20;;
65187;SDS011;51775;51.148;6.950;2023-08-20T06:13:07;2.97;;;2.30;;
65187;SDS011;51775;51.148;6.950;2023-08-20T06:15:32;2.80;;;2.28;;
65187;SDS011;51775;51.148;6.950;2023-08-20T06:17:57;2.85;;;2.20;;
65187;SDS011;51775;51.148;6.950;2023-08-20T06:20:23;3.17;;;2.38;;
65187;SDS011;51775;51.148;6.950;2023-08-20T06:22:48;3.00;;;2.40;;
65187;SDS011;51775;51.148;6.950;2023-08-20T06:25:13;2.60;;;2.13;;
65187;SDS011;51775;51.148;6.950;2023-08-20T06:27:39;3.10;;;2.50;;
65187;SDS011;51775;51.148;6.950;2023-08-20T06:30:04;2.90;;;2.38;;
65187;SDS011;51775;51.148;6.950;2023-08-20T06:32:30;3.28;;;2.35;;
65187;SDS011;51775;51.148;6.950;2023-08-20T06:34:55;3.08;;;2.58;;
65187;SDS011;51775;51.148;6.950;2023-08-20T06:37:21;3.30;;;2.40;;
65187;SDS011;51775;51.148;6.950;2023-08-20T06:39:46;3.13;;;2.45;;
65187;SDS011;51775;51.148;6.950;2023-08-20T06:42:11;3.05;;;2.50;;
65187;SDS011;51775;51.148;6.950;2023-08-20T06:44:36;3.55;;;2.47;;
65187;SDS011;51775;51.148;6.950;2023-08-20T06:47:02;2.80;;;2.20;;
65187;SDS011;51775;51.148;6.950;2023-08-20T06:49:27;2.90;;;2.53;;
65187;SDS011;51775;51.148;6.950;2023-08-20T06:51:52;3.00;;;2.50;;
65187;SDS011;51775;51.148;6.950;2023-08-20T06:54:18;3.10;;;2.42;;
65187;SDS011;51775;51.148;6.950;2023-08-20T06:56:43;3.20;;;2.50;;
65187;SDS011;51775;51.148;6.950;2023-08-20T06:59:08;3.08;;;2.42;;
65187;SDS011;51775;51.148;6.950;2023-08-20T07:01:34;3.60;;;2.50;;
65187;SDS011;51775;51.148;6.950;2023-08-20T07:03:59;3.28;;;2.50;;
65187;SDS011;51775;51.148;6.950;2023-08-20T07:06:24;3.10;;;2.50;;
65187;SDS011;51775;51.148;6.950;2023-08-20T07:08:50;3.30;;;2.70;;
65187;SDS011;51775;51.148;6.950;2023-08-20T07:11:15;3.33;;;2.60;;
65187;SDS011;51775;51.148;6.950;2023-08-20T07:13:40;3.20;;;2.55;;
65187;SDS011;51775;51.148;6.950;2023-08-20T07:16:05;3.17;;;2.60;;
65187;SDS011;51775;51.148;6.950;2023-08-20T07:18:31;2.83;;;2.40;;
65187;SDS011;51775;51.148;6.950;2023-08-20T07:20:56;2.97;;;2.40;;
65187;SDS011;51775;51.148;6.950;2023-08-20T07:23:21;3.45;;;2.58;;
65187;SDS011;51775;51.148;6.950;2023-08-20T07:25:47;2.92;;;2.40;;
65187;SDS011;51775;51.148;6.950;2023-08-20T07:28:12;3.60;;;2.63;;
65187;SDS011;51775;51.148;6.950;2023-08-20T07:30:38;3.03;;;2.50;;
65187;SDS011;51775;51.148;6.950;2023-08-20T07:33:03;3.30;;;2.60;;
65187;SDS011;51775;51.148;6.950;2023-08-20T07:35:30;3.40;;;2.72;;
65187;SDS011;51775;51.148;6.950;2023-08-20T07:37:55;3.47;;;2.70;;
65187;SDS011;51775;51.148;6.950;2023-08-20T07:40:21;3.03;;;2.45;;
65187;SDS011;51775;51.148;6.950;2023-08-20T07:42:46;3.28;;;2.70;;
65187;SDS011;51775;51.148;6.950;2023-08-20T07:45:11;3.20;;;2.70;;
65187;SDS011;51775;51.148;6.950;2023-08-20T07:47:36;3.67;;;2.60;;
65187;SDS011;51775;51.148;6.950;2023-08-20T07:50:02;3.05;;;2.60;;
65187;SDS011;51775;51.148;6.950;2023-08-20T07:52:28;3.22;;;2.60;;
65187;SDS011;51775;51.148;6.950;2023-08-20T07:54:54;3.30;;;2.70;;
65187;SDS011;51775;51.148;6.950;2023-08-20T07:57:19;4.00;;;2.60;;
65187;SDS011;51775;51.148;6.950;2023-08-20T07:59:44;3.13;;;2.53;;
65187;SDS011;51775;51.148;6.950;2023-08-20T08:02:09;3.72;;;2.85;;
65187;SDS011;51775;51.148;6.950;2023-08-20T08:04:35;3.65;;;2.78;;
65187;SDS011;51775;51.148;6.950;2023-08-20T08:07:01;3.53;;;2.63;;
65187;SDS011;51775;51.148;6.950;2023-08-20T08:09:27;3.25;;;2.80;;
65187;SDS011;51775;51.148;6.950;2023-08-20T08:11:54;3.38;;;2.75;;
65187;SDS011;51775;51.148;6.950;2023-08-20T08:14:19;3.40;;;2.60;;
65187;SDS011;51775;51.148;6.950;2023-08-20T08:16:45;3.22;;;2.70;;
65187;SDS011;51775;51.148;6.950;2023-08-20T08:19:11;3.58;;;2.70;;
65187;SDS011;51775;51.148;6.950;2023-08-20T08:21:37;3.10;;;2.60;;
65187;SDS011;51775;51.148;6.950;2023-08-20T08:24:02;3.65;;;2.80;;
65187;SDS011;51775;51.148;6.950;2023-08-20T08:26:28;3.40;;;2.70;;
65187;SDS011;51775;51.148;6.950;2023-08-20T08:28:54;3.03;;;2.53;;
65187;SDS011;51775;51.148;6.950;2023-08-20T08:31:19;3.75;;;2.70;;
65187;SDS011;51775;51.148;6.950;2023-08-20T08:33:45;3.30;;;2.72;;
65187;SDS011;51775;51.148;6.950;2023-08-20T08:36:10;3.10;;;2.58;;
65187;SDS011;51775;51.148;6.950;2023-08-20T08:38:35;3.20;;;2.60;;
65187;SDS011;51775;51.148;6.950;2023-08-20T08:41:00;3.70;;;2.80;;
65187;SDS011;51775;51.148;6.950;2023-08-20T08:43:28;3.50;;;2.88;;
65187;SDS011;51775;51.148;6.950;2023-08-20T08:45:56;4.07;;;3.03;;
65187;SDS011;51775;51.148;6.950;2023-08-20T08:48:22;4.80;;;3.08;;
65187;SDS011;51775;51.148;6.950;2023-08-20T08:50:49;3.80;;;2.97;;
65187;SDS011;51775;51.148;6.950;2023-08-20T08:53:16;3.58;;;2.85;;
65187;SDS011;51775;51.148;6.950;2023-08-20T08:55:41;4.30;;;2.75;;
65187;SDS011;51775;51.148;6.950;2023-08-20T08:58:07;3.90;;;2.72;;
65187;SDS011;51775;51.148;6.950;2023-08-20T09:00:32;3.97;;;2.60;;
65187;SDS011;51775;51.148;6.950;2023-08-20T09:02:58;4.47;;;2.50;;
65187;SDS011;51775;51.148;6.950;2023-08-20T09:05:23;3.55;;;2.85;;
65187;SDS011;51775;51.148;6.950;2023-08-20T09:07:50;4.38;;;2.70;;
65187;SDS011;51775;51.148;6.950;2023-08-20T09:10:25;3.20;;;2.63;;
65187;SDS011;51775;51.148;6.950;2023-08-20T09:12:51;2.97;;;2.38;;
65187;SDS011;51775;51.148;6.950;2023-08-20T09:15:19;3.50;;;2.40;;
65187;SDS011;51775;51.148;6.950;2023-08-20T09:17:44;3.05;;;2.42;;
65187;SDS011;51775;51.148;6.950;2023-08-20T09:20:11;2.72;;;2.38;;
65187;SDS011;51775;51.148;6.950;2023-08-20T09:22:37;3.25;;;2.42;;
65187;SDS011;51775;51.148;6.950;2023-08-20T09:25:02;3.22;;;2.60;;
65187;SDS011;51775;51.148;6.950;2023-08-20T09:27:28;3.42;;;2.40;;
65187;SDS011;51775;51.148;6.950;2023-08-20T09:29:54;4.18;;;2.28;;
65187;SDS011;51775;51.148;6.950;2023-08-20T09:32:24;3.20;;;2.40;;
65187;SDS011;51775;51.148;6.950;2023-08-20T09:34:51;3.40;;;2.30;;
65187;SDS011;51775;51.148;6.950;2023-08-20T09:37:18;3.85;;;2.20;;
65187;SDS011;51775;51.148;6.950;2023-08-20T09:39:44;3.03;;;2.50;;
65187;SDS011;51775;51.148;6.950;2023-08-20T09:42:10;2.92;;;2.42;;
65187;SDS011;51775;51.148;6.950;2023-08-20T09:44:37;3.05;;;2.47;;
65187;SDS011;51775;51.148;6.950;2023-08-20T09:47:11;3.65;;;2.50;;
65187;SDS011;51775;51.148;6.950;2023-08-20T09:49:38;2.72;;;2.20;;
65187;SDS011;51775;51.148;6.950;2023-08-20T09:52:16;4.55;;;2.58;;
65187;SDS011;51775;51.148;6.950;2023-08-20T09:57:34;3.40;;;2.30;;
65187;SDS011;51775;51.148;6.950;2023-08-20T10:00:02;3.15;;;2.30;;
65187;SDS011;51775;51.148;6.950;2023-08-20T10:02:29;3.72;;;2.50;;
65187;SDS011;51775;51.148;6.950;2023-08-20T10:04:54;3.47;;;2.50;;
65187;SDS011;51775;51.148;6.950;2023-08-20T10:07:20;2.90;;;2.30;;
65187;SDS011;51775;51.148;6.950;2023-08-20T10:09:47;2.85;;;2.30;;
65187;SDS011;51775;51.148;6.950;2023-08-20T10:12:13;3.05;;;2.40;;
65187;SDS011;51775;51.148;6.950;2023-08-20T10:14:39;3.10;;;2.42;;
65187;SDS011;51775;51.148;6.950;2023-08-20T10:17:08;3.15;;;2.40;;
65187;SDS011;51775;51.148;6.950;2023-08-20T10:19:34;3.45;;;2.38;;
65187;SDS011;51775;51.148;6.950;2023-08-20T10:22:01;3.15;;;2.45;;
65187;SDS011;51775;51.148;6.950;2023-08-20T10:24:27;3.25;;;2.50;;
65187;SDS011;51775;51.148;6.950;2023-08-20T10:27:06;3.10;;;2.40;;
65187;SDS011;51775;51.148;6.950;2023-08-20T10:29:38;2.85;;;2.28;;
65187;SDS011;51775;51.148;6.950;2023-08-20T10:32:05;3.15;;;2.40;;
65187;SDS011;51775;51.148;6.950;2023-08-20T10:34:33;2.90;;;2.47;;
65187;SDS011;51775;51.148;6.950;2023-08-20T10:37:01;2.83;;;2.28;;
65187;SDS011;51775;51.148;6.950;2023-08-20T10:39:27;3.10;;;2.30;;
65187;SDS011;51775;51.148;6.950;2023-08-20T10:42:07;2.78;;;2.20;;
65187;SDS011;51775;51.148;6.950;2023-08-20T10:47:36;3.10;;;2.60;;
65187;SDS011;51775;51.148;6.950;2023-08-20T10:50:11;2.78;;;2.30;;
65187;SDS011;51775;51.148;6.950;2023-08-20T10:52:40;3.15;;;2.30;;
65187;SDS011;51775;51.148;6.950;2023-08-20T10:55:07;4.85;;;2.42;;
65187;SDS011;51775;51.148;6.950;2023-08-20T10:57:33;3.30;;;2.50;;
65187;SDS011;51775;51.148;6.950;2023-08-20T10:59:59;3.10;;;2.15;;
65187;SDS011;51775;51.148;6.950;2023-08-20T11:02:28;2.90;;;2.20;;
65187;SDS011;51775;51.148;6.950;2023-08-20T11:04:54;3.38;;;2.28;;
65187;SDS011;51775;51.148;6.950;2023-08-20T11:07:19;2.97;;;2.30;;
65187;SDS011;51775;51.148;6.950;2023-08-20T11:09:45;2.55;;;2.10;;
65187;SDS011;51775;51.148;6.950;2023-08-20T11:12:10;2.72;;;2.05;;
65187;SDS011;51775;51.148;6.950;2023-08-20T11:14:36;3.42;;;2.40;;
65187;SDS011;51775;51.148;6.950;2023-08-20T11:17:01;2.95;;;2.22;;
65187;SDS011;51775;51.148;6.950;2023-08-20T11:19:27;3.00;;;2.13;;
65187;SDS011;51775;51.148;6.950;2023-08-20T11:21:53;3.08;;;2.17;;
65187;SDS011;51775;51.148;6.950;2023-08-20T11:24:19;3.00;;;2.00;;
65187;SDS011;51775;51.148;6.950;2023-08-20T11:26:44;2.80;;;2.10;;
65187;SDS011;51775;51.148;6.950;2023-08-20T11:29:11;4.40;;;2.60;;
65187;SDS011;51775;51.148;6.950;2023-08-20T11:31:37;3.72;;;2.28;;
65187;SDS011;51775;51.148;6.950;2023-08-20T11:34:04;4.53;;;2.30;;
65187;SDS011;51775;51.148;6.950;2023-08-20T11:36:30;3.53;;;2.25;;
65187;SDS011;51775;51.148;6.950;2023-08-20T11:38:56;3.63;;;2.30;;
65187;SDS011;51775;51.148;6.950;2023-08-20T11:41:22;3.15;;;2.20;;
65187;SDS011;51775;51.148;6.950;2023-08-20T11:43:49;3.60;;;2.30;;
65187;SDS011;51775;51.148;6.950;2023-08-20T11:46:17;3.63;;;2.30;;
65187;SDS011;51775;51.148;6.950;2023-08-20T11:51:35;4.45;;;2.40;;
65187;SDS011;51775;51.148;6.950;2023-08-20T11:54:11;2.92;;;2.20;;
65187;SDS011;51775;51.148;6.950;2023-08-20T11:56:44;3.50;;;2.40;;
65187;SDS011;51775;51.148;6.950;2023-08-20T11:59:14;3.90;;;2.28;;
65187;SDS011;51775;51.148;6.950;2023-08-20T12:01:40;6.07;;;2.70;;
65187;SDS011;51775;51.148;6.950;2023-08-20T12:04:06;4.47;;;2.47;;
65187;SDS011;51775;51.148;6.950;2023-08-20T12:06:32;3.88;;;2.40;;
65187;SDS011;51775;51.148;6.950;2023-08-20T12:08:59;3.35;;;2.40;;
65187;SDS011;51775;51.148;6.950;2023-08-20T12:11:27;3.25;;;2.50;;
65187;SDS011;51775;51.148;6.950;2023-08-20T12:13:53;4.47;;;2.50;;
65187;SDS011;51775;51.148;6.950;2023-08-20T12:16:21;3.13;;;2.13;;
65187;SDS011;51775;51.148;6.950;2023-08-20T12:18:47;3.92;;;2.03;;
65187;SDS011;51775;51.148;6.950;2023-08-20T12:21:13;3.65;;;2.47;;
65187;SDS011;51775;51.148;6.950;2023-08-20T12:23:39;3.88;;;2.70;;
65187;SDS011;51775;51.148;6.950;2023-08-20T12:26:04;3.97;;;2.70;;
65187;SDS011;51775;51.148;6.950;2023-08-20T12:28:29;3.67;;;2.42;;
65187;SDS011;51775;51.148;6.950;2023-08-20T12:30:55;3.83;;;2.35;;
65187;SDS011;51775;51.148;6.950;2023-08-20T12:33:20;4.65;;;2.45;;
65187;SDS011;51775;51.148;6.950;2023-08-20T12:35:45;3.45;;;2.58;;
65187;SDS011;51775;51.148;6.950;2023-08-20T12:38:11;2.83;;;2.10;;
65187;SDS011;51775;51.148;6.950;2023-08-20T12:40:36;3.97;;;2.40;;
65187;SDS011;51775;51.148;6.950;2023-08-20T12:43:03;3.40;;;2.35;;
65187;SDS011;51775;51.148;6.950;2023-08-20T12:45:28;4.90;;;2.40;;
65187;SDS011;51775;51.148;6.950;2023-08-20T12:47:54;3.35;;;2.58;;
65187;SDS011;51775;51.148;6.950;2023-08-20T12:50:19;3.50;;;2.50;;
65187;SDS011;51775;51.148;6.950;2023-08-20T12:52:45;4.00;;;2.40;;
65187;SDS011;51775;51.148;6.950;2023-08-20T12:55:10;3.88;;;2.42;;
65187;SDS011;51775;51.148;6.950;2023-08-20T12:57:35;4.10;;;2.50;;
65187;SDS011;51775;51.148;6.950;2023-08-20T13:00:01;3.78;;;2.60;;
65187;SDS011;51775;51.148;6.950;2023-08-20T13:02:27;4.05;;;2.70;;
65187;SDS011;51775;51.148;6.950;2023-08-20T13:04:52;4.28;;;2.45;;
65187;SDS011;51775;51.148;6.950;2023-08-20T13:07:18;5.60;;;2.60;;
65187;SDS011;51775;51.148;6.950;2023-08-20T13:09:44;4.72;;;2.85;;
65187;SDS011;51775;51.148;6.950;2023-08-20T13:12:10;3.53;;;2.63;;
65187;SDS011;51775;51.148;6.950;2023-08-20T13:14:35;4.57;;;2.63;;
65187;SDS011;51775;51.148;6.950;2023-08-20T13:17:01;3.80;;;2.88;;
65187;SDS011;51775;51.148;6.950;2023-08-20T13:19:27;3.90;;;2.78;;
65187;SDS011;51775;51.148;6.950;2023-08-20T13:21:52;4.70;;;2.80;;
65187;SDS011;51775;51.148;6.950;2023-08-20T13:24:17;4.43;;;2.70;;
65187;SDS011;51775;51.148;6.950;2023-08-20T13:26:42;3.47;;;2.38;;
65187;SDS011;51775;51.148;6.950;2023-08-20T13:29:08;4.28;;;2.97;;
65187;SDS011;51775;51.148;6.950;2023-08-20T13:31:33;3.78;;;2.47;;
65187;SDS011;51775;51.148;6.950;2023-08-20T13:33:58;3.83;;;2.65;;
65187;SDS011;51775;51.148;6.950;2023-08-20T13:36:23;3.80;;;2.80;;
65187;SDS011;51775;51.148;6.950;2023-08-20T13:38:49;3.85;;;2.83;;
65187;SDS011;51775;51.148;6.950;2023-08-20T13:41:14;5.65;;;3.17;;
65187;SDS011;51775;51.148;6.950;2023-08-20T13:43:39;4.00;;;2.88;;
65187;SDS011;51775;51.148;6.950;2023-08-20T13:46:05;3.80;;;2.75;;
65187;SDS011;51775;51.148;6.950;2023-08-20T13:48:30;3.30;;;2.75;;
65187;SDS011;51775;51.148;6.950;2023-08-20T13:50:55;4.10;;;2.90;;
65187;SDS011;51775;51.148;6.950;2023-08-20T13:53:20;3.97;;;2.80;;
65187;SDS011;51775;51.148;6.950;2023-08-20T13:55:46;4.40;;;3.00;;
65187;SDS011;51775;51.148;6.950;2023-08-20T13:58:11;3.85;;;2.80;;
65187;SDS011;51775;51.148;6.950;2023-08-20T14:00:36;4.07;;;2.97;;
65187;SDS011;51775;51.148;6.950;2023-08-20T14:03:02;4.18;;;3.10;;
65187;SDS011;51775;51.148;6.950;2023-08-20T14:05:27;4.70;;;3.08;;
65187;SDS011;51775;51.148;6.950;2023-08-20T14:07:53;4.05;;;2.63;;
65187;SDS011;51775;51.148;6.950;2023-08-20T14:10:18;3.72;;;2.83;;
65187;SDS011;51775;51.148;6.950;2023-08-20T14:12:43;4.22;;;2.90;;
65187;SDS011;51775;51.148;6.950;2023-08-20T14:15:09;4.72;;;3.17;;
65187;SDS011;51775;51.148;6.950;2023-08-20T14:17:34;3.60;;;2.85;;
65187;SDS011;51775;51.148;6.950;2023-08-20T14:20:00;4.25;;;2.80;;
65187;SDS011;51775;51.148;6.950;2023-08-20T14:22:25;3.75;;;2.85;;
65187;SDS011;51775;51.148;6.950;2023-08-20T14:24:50;3.17;;;2.55;;
65187;SDS011;51775;51.148;6.950;2023-08-20T14:27:16;5.13;;;3.10;;
65187;SDS011;51775;51.148;6.950;2023-08-20T14:29:41;4.05;;;3.10;;
65187;SDS011;51775;51.148;6.950;2023-08-20T14:32:06;5.60;;;3.10;;
65187;SDS011;51775;51.148;6.950;2023-08-20T14:34:32;3.83;;;3.20;;
65187;SDS011;51775;51.148;6.950;2023-08-20T14:36:57;5.63;;;2.88;;
65187;SDS011;51775;51.148;6.950;2023-08-20T14:39:22;3.28;;;2.70;;
65187;SDS011;51775;51.148;6.950;2023-08-20T14:41:48;4.53;;;3.03;;
65187;SDS011;51775;51.148;6.950;2023-08-20T14:44:13;5.32;;;3.08;;
65187;SDS011;51775;51.148;6.950;2023-08-20T14:46:38;3.60;;;2.88;;
65187;SDS011;51775;51.148;6.950;2023-08-20T14:49:03;5.90;;;3.05;;